Time;durP1;ratioP1;P1;durP2;ratioP2;P2;SDS_P1;SDS_P2;PMS_P1;PMS_P2;Temp;Humidity;BMP_temperature;BMP_pressure;BME280_temperature;BME280_humidity;BME280_pressure;Samples;Min_cycle;Max_cycle;Signal;HPM_P1;HPM_P2
2020/12/13 00:01:41;;;;;;;61.78;35.80;;;;;;;6.31;100.00;100524.47;5036591;28;20111;-72
2020/12/13 00:04:07;;;;;;;70.72;37.35;;;;;;;6.40;100.00;100540.41;5018365;28;20033;-73
2020/12/13 00:06:33;;;;;;;66.53;36.53;;;;;;;6.42;100.00;100532.31;5025060;28;20120;-73
2020/12/13 00:08:59;;;;;;;58.50;32.70;;;;;;;6.45;100.00;100529.41;5038143;28;20068;-74
2020/12/13 00:11:24;;;;;;;59.25;32.90;;;;;;;6.41;100.00;100536.81;5042492;28;20079;-74
2020/12/13 00:13:50;;;;;;;57.03;33.33;;;;;;;6.41;100.00;100534.16;5038178;28;20120;-78
2020/12/13 00:16:16;;;;;;;57.60;32.85;;;;;;;6.42;100.00;100538.47;5034459;28;20095;-78
2020/12/13 00:18:44;;;;;;;63.83;34.22;;;;;;;6.44;100.00;100543.63;5040683;28;20133;-78
2020/12/13 00:21:17;;;;;;;67.80;33.95;;;;;;;6.45;100.00;100531.25;5036898;28;20043;-79
2020/12/13 00:23:43;;;;;;;63.50;32.55;;;;;;;6.46;100.00;100530.25;5037233;28;20073;-74
2020/12/13 00:26:11;;;;;;;58.83;32.75;;;;;;;6.43;100.00;100531.34;5018752;28;20072;-75
2020/12/13 00:28:37;;;;;;;66.75;33.58;;;;;;;6.41;100.00;100534.16;5040889;28;20048;-75
2020/12/13 00:31:04;;;;;;;60.70;33.38;;;;;;;6.39;100.00;100522.84;5015929;28;20499;-74
2020/12/13 00:33:29;;;;;;;63.50;33.13;;;;;;;6.20;100.00;100483.84;5027964;28;20028;-74
2020/12/13 00:35:55;;;;;;;60.72;32.28;;;;;;;6.40;100.00;100516.56;5039405;28;20061;-78
2020/12/13 00:38:21;;;;;;;59.03;32.58;;;;;;;6.38;100.00;100526.47;5022747;28;20127;-75
2020/12/13 00:40:49;;;;;;;61.58;32.67;;;;;;;6.40;100.00;100529.81;5036644;28;20117;-77
2020/12/13 00:43:15;;;;;;;62.95;33.92;;;;;;;6.42;100.00;100540.28;5025990;28;20053;-77
2020/12/13 00:45:41;;;;;;;62.92;33.95;;;;;;;6.41;100.00;100542.09;5035801;28;20071;-73
2020/12/13 00:48:09;;;;;;;71.57;36.08;;;;;;;6.23;100.00;100506.59;5039731;28;20444;-73
2020/12/13 00:50:38;;;;;;;65.13;34.75;;;;;;;6.42;100.00;100537.63;5024722;28;20045;-77
2020/12/13 00:53:04;;;;;;;68.43;36.58;;;;;;;6.42;100.00;100541.13;5022924;28;20300;-77
2020/12/13 00:55:30;;;;;;;74.60;37.25;;;;;;;6.32;100.00;100526.16;5032302;28;20606;-73
2020/12/13 00:57:55;;;;;;;76.50;36.05;;;;;;;6.45;100.00;100547.16;5020121;28;20146;-73
2020/12/13 01:00:21;;;;;;;67.85;35.30;;;;;;;6.43;100.00;100545.47;5040845;28;20123;-73
2020/12/13 01:02:47;;;;;;;67.18;33.97;;;;;;;6.41;100.00;100555.34;5019734;28;20117;-73
2020/12/13 01:05:13;;;;;;;61.67;32.35;;;;;;;6.41;100.00;100558.00;5021237;28;20040;-78
2020/12/13 01:07:39;;;;;;;58.28;32.15;;;;;;;6.43;100.00;100556.06;5016372;28;20057;-78
2020/12/13 01:10:04;;;;;;;72.40;34.30;;;;;;;6.46;100.00;100570.00;5017654;28;20116;-78
2020/12/13 01:12:32;;;;;;;58.03;31.60;;;;;;;6.40;100.00;100563.41;5022504;28;20029;-78
2020/12/13 01:14:58;;;;;;;63.03;30.90;;;;;;;6.41;100.00;100573.91;5040854;28;20530;-78
2020/12/13 01:17:23;;;;;;;52.95;28.17;;;;;;;6.41;100.00;100578.34;5024336;28;20167;-78
2020/12/13 01:19:49;;;;;;;48.58;27.42;;;;;;;6.46;100.00;100577.94;5033601;28;20116;-73
2020/12/13 01:22:14;;;;;;;45.45;26.63;;;;;;;6.48;100.00;100592.78;5017614;28;20034;-74
2020/12/13 01:24:40;;;;;;;45.50;26.52;;;;;;;6.49;100.00;100586.50;5021500;28;20034;-73
2020/12/13 01:27:05;;;;;;;48.33;28.00;;;;;;;6.47;100.00;100592.88;5034355;28;20037;-74
2020/12/13 01:29:31;;;;;;;51.72;28.73;;;;;;;6.45;100.00;100602.81;5040123;28;20148;-73
2020/12/13 01:31:57;;;;;;;43.95;27.13;;;;;;;6.48;100.00;100599.88;5041742;28;20123;-74
2020/12/13 01:34:22;;;;;;;43.70;26.38;;;;;;;6.49;100.00;100598.91;5030522;28;20144;-74
2020/12/13 01:36:48;;;;;;;47.70;27.70;;;;;;;6.46;100.00;100599.16;5041598;28;20128;-73
2020/12/13 01:39:13;;;;;;;43.35;26.20;;;;;;;6.42;100.00;100604.75;5019859;28;20113;-73
2020/12/13 01:41:39;;;;;;;44.15;27.27;;;;;;;6.38;100.00;100613.94;5042047;28;20123;-73
2020/12/13 01:44:04;;;;;;;48.80;28.10;;;;;;;6.37;100.00;100612.25;5041269;28;20075;-74
2020/12/13 01:46:33;;;;;;;47.80;28.17;;;;;;;6.37;100.00;100612.25;5010298;28;20076;-74
2020/12/13 01:49:05;;;;;;;51.58;27.85;;;;;;;6.37;100.00;100614.06;5043199;28;20133;-75
2020/12/13 01:54:23;;;;;;;52.28;29.67;;;;;;;6.35;100.00;100619.47;5026009;28;20044;-73
2020/12/13 01:56:53;;;;;;;52.20;29.20;;;;;;;6.38;100.00;100621.88;5015021;28;20115;-73
2020/12/13 01:59:20;;;;;;;54.65;29.50;;;;;;;6.40;100.00;100624.38;5023221;28;20557;-73
2020/12/13 02:01:48;;;;;;;59.30;31.50;;;;;;;6.30;100.00;100607.59;5028683;28;20028;-73
2020/12/13 02:04:15;;;;;;;59.37;30.90;;;;;;;6.37;100.00;100617.53;5037786;28;20076;-73
2020/12/13 02:06:41;;;;;;;61.40;32.73;;;;;;;6.40;100.00;100619.09;5014522;28;20464;-73
2020/12/13 02:09:06;;;;;;;65.53;32.35;;;;;;;6.42;100.00;100630.41;5000028;28;21064;-73
2020/12/13 02:11:33;;;;;;;61.22;32.25;;;;;;;6.41;100.00;100631.38;5027457;28;20111;-73
2020/12/13 02:13:59;;;;;;;66.72;33.03;;;;;;;6.41;100.00;100628.72;5021690;28;20033;-77
2020/12/13 02:16:24;;;;;;;67.95;32.80;;;;;;;6.42;100.00;100631.25;5042139;28;20143;-72
2020/12/13 02:18:50;;;;;;;74.07;35.40;;;;;;;6.43;100.00;100638.25;5029060;28;20155;-73
2020/12/13 02:21:16;;;;;;;78.18;35.45;;;;;;;6.46;100.00;100633.63;5023477;28;20112;-73
2020/12/13 02:23:42;;;;;;;82.60;34.63;;;;;;;6.46;100.00;100646.88;5044403;28;20068;-73
2020/12/13 02:26:11;;;;;;;66.72;33.13;;;;;;;6.46;100.00;100649.53;5041896;28;20037;-73
2020/12/13 02:28:37;;;;;;;76.55;34.92;;;;;;;6.48;100.00;100656.41;5019789;28;20098;-72
2020/12/13 02:31:03;;;;;;;69.68;33.05;;;;;;;6.50;100.00;100651.81;5042853;28;20162;-73
2020/12/13 02:33:29;;;;;;;57.40;30.35;;;;;;;6.52;100.00;100654.31;5011501;28;20119;-73
2020/12/13 02:35:54;;;;;;;59.42;30.35;;;;;;;6.49;100.00;100650.13;5024271;28;20083;-73
2020/12/13 02:38:20;;;;;;;59.97;29.05;;;;;;;6.44;100.00;100644.38;5021250;28;20051;-77
2020/12/13 02:40:46;;;;;;;60.63;29.10;;;;;;;6.42;100.00;100646.31;5017498;28;20124;-77
2020/12/13 02:43:11;;;;;;;54.40;28.83;;;;;;;6.40;100.00;100646.44;5021202;28;20131;-73
2020/12/13 02:45:37;;;;;;;51.80;27.20;;;;;;;6.36;100.00;100641.53;5044654;28;20120;-76
2020/12/13 02:48:02;;;;;;;50.85;28.35;;;;;;;6.35;100.00;100648.63;5041345;28;20140;-73
2020/12/13 02:50:31;;;;;;;58.88;30.38;;;;;;;6.35;100.00;100647.81;5040068;28;20127;-73
2020/12/13 02:52:57;;;;;;;60.13;30.85;;;;;;;6.33;100.00;100650.56;5021849;28;20118;-73
2020/12/13 02:55:23;;;;;;;66.88;32.40;;;;;;;6.33;100.00;100657.69;5030223;28;20056;-74
2020/12/13 02:57:48;;;;;;;76.78;34.60;;;;;;;6.25;100.00;100645.91;5038903;28;20468;-73
2020/12/13 03:00:14;;;;;;;68.32;34.63;;;;;;;6.35;100.00;100669.84;5016075;28;20120;-73
2020/12/13 03:02:39;;;;;;;81.13;36.13;;;;;;;6.38;100.00;100676.72;5023106;28;20057;-73
2020/12/13 03:05:05;;;;;;;82.78;37.75;;;;;;;6.39;100.00;100673.06;5023140;28;20121;-73
2020/12/13 03:07:30;;;;;;;89.25;37.38;;;;;;;6.41;100.00;100669.34;5026792;28;20120;-76
2020/12/13 03:09:56;;;;;;;85.97;38.42;;;;;;;6.41;100.00;100676.44;5027612;28;20119;-73
2020/12/13 03:12:21;;;;;;;78.13;36.45;;;;;;;6.41;100.00;100677.28;5041706;28;20528;-74
2020/12/13 03:14:47;;;;;;;81.30;37.47;;;;;;;6.40;100.00;100675.59;5038385;28;20124;-73
2020/12/13 03:17:13;;;;;;;86.72;38.25;;;;;;;6.42;100.00;100673.66;5022802;28;20124;-73
2020/12/13 03:19:38;;;;;;;90.75;38.95;;;;;;;6.43;100.00;100683.31;5039670;28;20588;-73
2020/12/13 03:22:04;;;;;;;98.10;41.25;;;;;;;6.46;100.00;100682.19;5038158;28;20144;-72
2020/12/13 03:24:29;;;;;;;86.93;37.80;;;;;;;6.47;100.00;100685.66;5037431;28;20132;-76
2020/12/13 03:26:55;;;;;;;85.72;38.40;;;;;;;6.47;100.00;100694.47;5024953;28;20509;-76
2020/12/13 03:29:20;;;;;;;99.10;41.83;;;;;;;6.49;100.00;100692.53;5044362;28;22291;-76
2020/12/13 03:31:47;;;;;;;99.20;40.60;;;;;;;6.51;100.00;100693.25;5040714;28;20072;-72
2020/12/13 03:34:13;;;;;;;95.18;41.60;;;;;;;6.54;100.00;100697.44;5028895;28;20481;-73
2020/12/13 03:36:38;;;;;;;100.15;42.67;;;;;;;6.47;100.00;100705.09;5035681;28;20113;-73
2020/12/13 03:39:04;;;;;;;110.78;46.40;;;;;;;6.59;100.00;100704.03;5041170;28;20045;-73
2020/12/13 03:41:30;;;;;;;111.82;45.42;;;;;;;6.59;100.00;100701.38;5041940;28;22170;-73
2020/12/13 03:43:55;;;;;;;121.97;47.00;;;;;;;6.49;100.00;100686.38;5041723;28;20037;-72
2020/12/13 03:46:21;;;;;;;112.03;45.85;;;;;;;6.63;100.00;100711.75;5006564;28;20037;-73
2020/12/13 03:48:46;;;;;;;115.38;46.75;;;;;;;6.62;100.00;100713.53;5012179;28;20030;-73
2020/12/13 03:51:12;;;;;;;126.10;47.17;;;;;;;6.64;100.00;100710.78;5022758;28;20051;-73
2020/12/13 03:53:37;;;;;;;111.22;45.28;;;;;;;6.63;100.00;100712.56;5027526;28;20563;-77
2020/12/13 03:56:03;;;;;;;104.97;43.53;;;;;;;6.62;100.00;100716.19;5019493;28;20590;-73
2020/12/13 03:58:29;;;;;;;98.68;41.88;;;;;;;6.62;100.00;100716.19;5040817;28;20123;-72
2020/12/13 04:00:54;;;;;;;106.00;44.08;;;;;;;6.63;100.00;100727.66;5037558;28;20374;-73
2020/12/13 04:03:20;;;;;;;104.40;42.55;;;;;;;6.61;100.00;100729.59;5038335;28;20495;-73
2020/12/13 04:05:45;;;;;;;105.78;40.55;;;;;;;6.59;100.00;100727.03;5025228;28;20029;-72
2020/12/13 04:08:11;;;;;;;91.13;39.83;;;;;;;6.60;100.00;100731.38;5038439;28;20037;-73
2020/12/13 04:10:36;;;;;;;95.70;39.90;;;;;;;6.58;100.00;100738.66;5041627;28;20127;-73
2020/12/13 04:13:02;;;;;;;98.22;40.25;;;;;;;6.48;100.00;100727.13;5039240;28;20047;-73
2020/12/13 04:15:27;;;;;;;95.53;40.22;;;;;;;6.54;100.00;100746.00;5024263;28;20111;-73
2020/12/13 04:17:53;;;;;;;100.57;39.90;;;;;;;6.53;100.00;100744.31;5023649;28;20044;-73
2020/12/13 04:20:18;;;;;;;94.30;40.58;;;;;;;6.55;100.00;100750.34;5017439;28;20128;-73
2020/12/13 04:22:44;;;;;;;104.10;39.58;;;;;;;6.56;100.00;100753.84;5023168;28;20072;-73
2020/12/13 04:25:09;;;;;;;101.93;41.35;;;;;;;6.57;100.00;100752.88;5035371;28;20055;-73
2020/12/13 04:27:35;;;;;;;97.43;39.72;;;;;;;6.59;100.00;100756.22;5004460;28;20082;-72
2020/12/13 04:30:00;;;;;;;90.22;39.47;;;;;;;6.58;100.00;100755.38;5040983;28;20825;-73
2020/12/13 04:32:26;;;;;;;89.82;39.58;;;;;;;6.57;100.00;100752.88;5022475;28;20235;-73
2020/12/13 04:34:52;;;;;;;95.68;38.83;;;;;;;6.59;100.00;100751.78;5023522;28;20068;-73
2020/12/13 04:37:17;;;;;;;89.47;39.85;;;;;;;6.59;100.00;100764.16;5040395;28;20504;-73
2020/12/13 04:39:43;;;;;;;88.22;39.03;;;;;;;6.61;100.00;100770.19;5025826;28;20037;-72
2020/12/13 04:42:08;;;;;;;87.20;37.40;;;;;;;6.61;100.00;100764.06;5038269;28;20994;-74
2020/12/13 04:44:34;;;;;;;81.82;36.75;;;;;;;6.55;100.00;100755.63;5038788;28;20123;-72
2020/12/13 04:47:04;;;;;;;83.72;37.33;;;;;;;6.61;100.00;100762.22;5004856;28;20111;-73
2020/12/13 04:49:31;;;;;;;77.85;37.50;;;;;;;6.59;100.00;100766.81;5037716;28;20223;-72
2020/12/13 04:51:57;;;;;;;70.55;34.10;;;;;;;6.59;100.00;100762.38;5040471;28;20072;-72
2020/12/13 04:54:25;;;;;;;76.00;35.20;;;;;;;6.59;100.00;100769.47;5036825;28;20037;-72
2020/12/13 04:56:51;;;;;;;75.50;35.65;;;;;;;6.57;100.00;100766.97;5038172;28;20502;-73
2020/12/13 04:59:17;;;;;;;83.35;37.20;;;;;;;6.48;100.00;100750.97;5021625;28;20036;-73
2020/12/13 05:01:46;;;;;;;77.68;36.78;;;;;;;6.54;100.00;100777.81;5005659;28;20080;-72
2020/12/13 05:04:12;;;;;;;82.38;38.08;;;;;;;6.56;100.00;100775.06;5020877;28;20041;-73
2020/12/13 05:06:41;;;;;;;75.95;36.70;;;;;;;6.57;100.00;100782.03;5037978;28;20068;-72
2020/12/13 05:09:07;;;;;;;77.13;38.05;;;;;;;6.51;100.00;100771.94;5040628;28;20037;-73
2020/12/13 05:11:32;;;;;;;77.45;37.78;;;;;;;6.56;100.00;100788.31;5022830;28;20075;-73
2020/12/13 05:13:58;;;;;;;70.93;35.30;;;;;;;6.54;100.00;100787.59;5038071;28;20044;-73
2020/12/13 05:16:23;;;;;;;80.07;37.58;;;;;;;6.55;100.00;100786.63;5038809;28;20203;-73
2020/12/13 05:18:51;;;;;;;74.70;37.17;;;;;;;6.56;100.00;100783.00;5008971;28;20041;-73
2020/12/13 05:21:23;;;;;;;71.22;35.70;;;;;;;6.56;100.00;100781.19;5020628;28;20123;-73
2020/12/13 05:23:49;;;;;;;76.85;35.00;;;;;;;6.54;100.00;100782.28;5038696;28;20036;-73
2020/12/13 05:26:15;;;;;;;76.72;35.33;;;;;;;6.31;100.00;100745.28;5025754;28;20044;-73
2020/12/13 05:28:47;;;;;;;75.15;33.55;;;;;;;6.45;100.00;100768.00;5021766;28;20040;-73
2020/12/13 05:31:17;;;;;;;71.68;33.22;;;;;;;6.54;100.00;100777.00;5022812;28;20059;-72
2020/12/13 05:33:55;;;;;;;73.93;34.13;;;;;;;6.52;100.00;100782.41;5034392;28;20049;-72
2020/12/13 05:36:20;;;;;;;71.55;31.85;;;;;;;6.50;100.00;100780.84;5033358;28;20128;-72
2020/12/13 05:38:46;;;;;;;60.47;30.17;;;;;;;6.42;100.00;100770.88;5034631;28;20120;-72
2020/12/13 05:41:14;;;;;;;62.67;29.20;;;;;;;6.53;100.00;100791.22;5039950;28;20429;-71
2020/12/13 05:43:48;;;;;;;60.90;27.83;;;;;;;6.44;100.00;100776.91;5041237;28;20048;-72
2020/12/13 05:51:41;;;;;;;67.07;28.65;;;;;;;6.59;100.00;100788.88;5020215;28;20032;-73
2020/12/13 05:54:23;;;;;;;66.65;28.52;;;;;;;6.59;100.00;100804.81;5041511;28;20029;-73
2020/12/13 05:56:51;;;;;;;78.15;30.30;;;;;;;6.60;100.00;100800.31;5036605;28;20033;-72
2020/12/13 05:59:17;;;;;;;74.38;29.58;;;;;;;6.66;100.00;100804.28;5011606;28;20033;-72
2020/12/13 06:01:47;;;;;;;76.03;31.00;;;;;;;6.54;100.00;100777.00;5039478;28;20039;-72
2020/12/13 06:04:13;;;;;;;77.53;29.77;;;;;;;6.71;100.00;100804.75;5025230;28;20068;-72
2020/12/13 06:06:43;;;;;;;78.60;31.60;;;;;;;6.64;100.00;100793.81;5015627;28;20522;-71
2020/12/13 06:09:10;;;;;;;71.22;30.23;;;;;;;6.61;100.00;100791.41;5026646;28;20931;-71
2020/12/13 06:11:37;;;;;;;73.38;30.48;;;;;;;6.66;100.00;100794.53;5020806;28;20443;-71
2020/12/13 06:14:14;;;;;;;75.13;31.60;;;;;;;6.71;100.00;100802.94;5026340;28;20034;-72
2020/12/13 06:16:39;;;;;;;75.93;31.30;;;;;;;6.57;100.00;100785.53;5027822;28;20032;-73
2020/12/13 06:19:05;;;;;;;87.75;34.42;;;;;;;6.79;100.00;100814.72;5028796;28;20707;-72
2020/12/13 06:21:31;;;;;;;80.75;35.53;;;;;;;6.74;100.00;100800.00;5050203;28;20057;-73
2020/12/13 06:23:57;;;;;;;80.20;33.03;;;;;;;6.80;100.00;100813.75;4986632;28;20089;-73
2020/12/13 06:26:23;;;;;;;76.93;33.53;;;;;;;6.79;100.00;100818.19;5020439;28;20123;-73
2020/12/13 06:28:50;;;;;;;76.30;33.03;;;;;;;6.79;100.00;100826.13;5024073;28;20040;-73
2020/12/13 06:31:16;;;;;;;80.78;33.33;;;;;;;6.79;100.00;100826.13;4991312;28;20033;-73
2020/12/13 06:33:41;;;;;;;84.75;35.33;;;;;;;6.65;100.00;100803.44;5045484;28;20100;-73
2020/12/13 06:36:07;;;;;;;73.15;32.78;;;;;;;6.80;100.00;100824.34;5006939;28;20646;-73
2020/12/13 06:38:34;;;;;;;73.22;32.20;;;;;;;6.79;100.00;100825.31;5043477;28;20083;-73
2020/12/13 06:41:26;;;;;;;80.60;32.80;;;;;;;6.80;100.00;100821.69;5025278;28;20052;-73
2020/12/13 06:43:54;;;;;;;77.60;31.52;;;;;;;6.79;100.00;100823.50;5035045;28;20049;-73
2020/12/13 06:46:20;;;;;;;77.68;33.13;;;;;;;6.80;100.00;100832.31;5027484;28;20045;-73
2020/12/13 06:48:46;;;;;;;78.95;32.20;;;;;;;6.82;100.00;100825.88;5035750;28;20140;-73
2020/12/13 06:51:36;;;;;;;73.57;32.00;;;;;;;6.83;100.00;100835.53;5012862;28;20060;-76
2020/12/13 06:54:03;;;;;;;69.70;31.75;;;;;;;6.81;100.00;100834.00;5037543;28;20057;-73
2020/12/13 06:56:29;;;;;;;77.77;32.40;;;;;;;6.69;100.00;100822.59;5033610;28;20582;-73
2020/12/13 06:58:56;;;;;;;69.05;30.73;;;;;;;6.70;100.00;100822.47;5005044;28;20048;-73
2020/12/13 07:01:28;;;;;;;70.60;31.08;;;;;;;6.81;100.00;100836.63;5025354;28;20036;-73
2020/12/13 07:03:55;;;;;;;74.55;30.55;;;;;;;6.78;100.00;100834.25;5039901;28;20039;-73
2020/12/13 07:06:26;;;;;;;70.22;32.00;;;;;;;6.73;100.00;100827.50;5040899;28;20030;-73
2020/12/13 07:09:01;;;;;;;74.97;34.05;;;;;;;6.72;100.00;100833.78;5024851;28;20534;-73
2020/12/13 07:11:29;;;;;;;77.68;32.00;;;;;;;6.81;100.00;100844.59;5030206;28;20124;-76
2020/12/13 07:14:05;;;;;;;70.50;32.72;;;;;;;6.81;100.00;100837.47;5041125;28;20542;-76
2020/12/13 07:16:35;;;;;;;67.80;31.95;;;;;;;6.33;100.00;100761.88;5011965;28;20094;-76
2020/12/13 07:19:03;;;;;;;69.07;32.42;;;;;;;6.84;100.00;100855.78;5008489;28;20025;-75
2020/12/13 07:21:28;;;;;;;77.40;33.65;;;;;;;6.82;100.00;100851.59;5039314;28;20074;-74
2020/12/13 07:23:57;;;;;;;69.20;33.53;;;;;;;6.83;100.00;100858.59;5036507;28;20130;-75
2020/12/13 07:26:22;;;;;;;69.22;32.53;;;;;;;6.84;100.00;100861.09;5040068;28;20139;-72
2020/12/13 07:28:48;;;;;;;77.20;34.45;;;;;;;6.82;100.00;100863.03;5037925;28;20140;-73
2020/12/13 07:31:13;;;;;;;66.18;31.73;;;;;;;6.77;100.00;100873.19;5022073;28;20582;-72
2020/12/13 07:33:39;;;;;;;71.30;32.40;;;;;;;6.72;100.00;100870.91;5002138;28;20767;-73
2020/12/13 07:36:05;;;;;;;67.05;32.70;;;;;;;6.70;100.00;100870.22;5020347;28;20098;-73
2020/12/13 07:38:30;;;;;;;70.65;33.17;;;;;;;6.65;100.00;100876.88;5026046;28;20713;-74
2020/12/13 07:40:57;;;;;;;65.45;30.13;;;;;;;6.57;100.00;100880.97;5034735;28;20627;-73
2020/12/13 07:43:23;;;;;;;59.92;31.02;;;;;;;6.52;100.00;100885.81;5019083;28;20045;-74
2020/12/13 07:45:49;;;;;;;70.82;32.22;;;;;;;6.47;100.00;100889.81;5007810;28;20036;-75
2020/12/13 07:48:18;;;;;;;68.75;31.27;;;;;;;6.48;100.00;100887.03;5035259;28;20522;-74
2020/12/13 07:50:44;;;;;;;;;;;;;;;6.41;100.00;100891.16;5038804;28;20029;-74
2020/12/13 07:53:09;;;;;;;66.30;32.08;;;;;;;6.34;100.00;100882.03;5013713;28;19928;-75
2020/12/13 07:55:41;;;;;;;71.63;32.92;;;;;;;6.29;100.00;100882.41;5023171;28;20172;-75
2020/12/13 07:58:07;;;;;;;69.63;32.08;;;;;;;6.40;100.00;100903.56;5034234;28;20562;-74
2020/12/13 08:00:32;;;;;;;69.25;32.25;;;;;;;6.43;100.00;100903.34;5020494;28;20119;-74
2020/12/13 08:02:58;;;;;;;71.85;32.10;;;;;;;6.50;100.00;100903.66;5021019;28;20139;-78
2020/12/13 08:05:28;;;;;;;74.15;31.67;;;;;;;6.38;100.00;100891.41;5035773;28;20051;-75
2020/12/13 08:07:59;;;;;;;63.38;31.02;;;;;;;6.53;100.00;100923.78;5021419;28;20075;-74
2020/12/13 08:10:28;;;;;;;73.28;30.50;;;;;;;6.51;100.00;100926.56;5014842;28;20108;-73
2020/12/13 08:12:54;;;;;;;64.78;30.63;;;;;;;6.55;100.00;100941.25;5032532;28;20040;-74
2020/12/13 08:15:19;;;;;;;63.72;29.55;;;;;;;6.65;100.00;100930.72;5017325;28;20103;-73
2020/12/13 08:18:06;;;;;;;45.85;26.10;;;;;;;6.70;100.00;100933.00;5035116;28;20049;-74
2020/12/13 08:20:32;;;;;;;54.05;26.25;;;;;;;6.69;100.00;100931.31;5024965;28;20052;-73
2020/12/13 08:22:58;;;;;;;54.97;26.67;;;;;;;6.68;100.00;100940.25;5007495;28;20037;-75
2020/12/13 08:25:23;;;;;;;48.63;24.85;;;;;;;6.72;100.00;100947.81;4993396;28;20075;-75
2020/12/13 08:27:49;;;;;;;57.53;25.17;;;;;;;6.71;100.00;100945.28;4988753;28;20132;-75
2020/12/13 08:30:18;;;;;;;46.30;22.63;;;;;;;6.60;100.00;100938.22;5006545;28;20466;-75
2020/12/13 08:32:44;;;;;;;54.28;24.13;;;;;;;6.67;100.00;100951.81;4998430;28;20029;-75
2020/12/13 08:35:18;;;;;;;47.40;21.75;;;;;;;6.63;100.00;100959.19;5020689;28;20088;-75
2020/12/13 08:37:53;;;;;;;54.47;23.17;;;;;;;6.61;100.00;100960.28;5022040;28;20033;-74
2020/12/13 08:40:38;;;;;;;48.10;22.27;;;;;;;6.63;100.00;100959.19;5032115;28;20059;-75
2020/12/13 08:43:06;;;;;;;42.83;20.95;;;;;;;6.50;100.00;100946.09;5007494;28;20061;-75
2020/12/13 08:45:32;;;;;;;47.92;20.85;;;;;;;6.58;99.58;100967.50;5015841;28;20606;-75
2020/12/13 08:48:01;;;;;;;46.30;21.10;;;;;;;6.57;99.69;100962.34;5014651;28;20046;-75
2020/12/13 08:50:27;;;;;;;54.55;21.70;;;;;;;6.59;99.50;100963.03;5017043;28;20451;-75
2020/12/13 08:52:52;;;;;;;45.90;20.45;;;;;;;6.58;98.92;100962.22;5003947;28;20168;-75
2020/12/13 08:55:25;;;;;;;40.97;19.70;;;;;;;6.56;98.99;100972.09;5029486;28;20260;-75
2020/12/13 08:57:58;;;;;;;43.17;18.55;;;;;;;6.49;98.39;100968.25;5015650;28;20103;-75
2020/12/13 09:00:26;;;;;;;43.85;19.45;;;;;;;6.48;98.42;100974.53;5005408;28;20119;-74
2020/12/13 09:02:59;;;;;;;36.63;18.45;;;;;;;6.42;98.58;100978.53;4999872;28;20021;-75
2020/12/13 09:05:29;;;;;;;35.55;17.35;;;;;;;6.46;99.11;100979.09;5018075;28;20124;-74
2020/12/13 09:07:56;;;;;;;37.72;17.85;;;;;;;6.52;98.88;100977.78;4989320;28;20033;-78
2020/12/13 09:10:21;;;;;;;44.63;16.40;;;;;;;6.55;98.29;100982.84;5013385;28;20044;-86
2020/12/13 09:12:47;;;;;;;43.47;16.83;;;;;;;6.57;98.35;100981.75;5016538;28;20135;-86
2020/12/13 09:15:12;;;;;;;42.83;17.45;;;;;;;6.61;98.17;100987.63;5015424;28;20072;-77
2020/12/13 09:17:39;;;;;;;38.20;17.08;;;;;;;6.41;97.64;100947.66;5022060;28;20051;-86
2020/12/13 09:20:04;;;;;;;32.65;16.90;;;;;;;6.59;97.88;100989.56;5000510;28;20103;-85
2020/12/13 09:22:30;;;;;;;36.08;17.55;;;;;;;6.61;97.64;100986.81;5013467;28;20515;-85
2020/12/13 09:24:57;;;;;;;41.60;17.58;;;;;;;6.63;97.54;100998.97;5013091;28;20377;-85
2020/12/13 09:27:23;;;;;;;42.38;18.95;;;;;;;6.51;97.82;100992.00;5016652;28;20048;-86
2020/12/13 09:29:49;;;;;;;34.58;17.95;;;;;;;6.18;97.45;100922.16;5017462;28;20117;-85
2020/12/13 09:32:15;;;;;;;42.10;18.48;;;;;;;6.53;97.73;100977.63;5016260;28;23071;-88
2020/12/13 09:34:42;;;;;;;36.17;17.05;;;;;;;6.70;96.81;100986.91;5003198;28;20034;-85
2020/12/13 09:37:08;;;;;;;39.90;16.08;;;;;;;6.78;96.87;100996.91;5018066;28;20095;-83
2020/12/13 09:39:34;;;;;;;32.95;16.80;;;;;;;6.71;96.87;100980.63;5014486;28;20061;-83
2020/12/13 09:41:59;;;;;;;31.95;15.75;;;;;;;6.93;96.36;101002.75;5008847;28;20129;-85
2020/12/13 09:44:25;;;;;;;36.97;16.85;;;;;;;6.90;96.00;100992.38;5013572;28;20124;-85
2020/12/13 09:47:09;;;;;;;33.72;15.68;;;;;;;6.89;95.70;101003.97;5022188;28;20048;-86
2020/12/13 09:49:35;;;;;;;31.35;15.38;;;;;;;6.81;95.55;100979.88;5031330;28;20052;-84
2020/12/13 09:52:02;;;;;;;25.25;14.52;;;;;;;6.89;95.04;100993.34;5035545;28;20119;-86
2020/12/13 09:54:28;;;;;;;25.95;13.15;;;;;;;7.04;94.37;101004.53;5036183;28;20029;-85
2020/12/13 09:56:53;;;;;;;21.88;13.52;;;;;;;7.12;94.26;101003.91;4998732;28;20059;-85
2020/12/13 09:59:19;;;;;;;23.88;12.93;;;;;;;7.19;93.96;101013.84;5021630;28;20106;-84
2020/12/13 10:01:44;;;;;;;27.45;14.00;;;;;;;7.10;94.04;101017.28;5042505;28;20029;-85
2020/12/13 10:04:10;;;;;;;25.92;14.50;;;;;;;7.06;94.84;101018.50;5044379;28;20199;-85
2020/12/13 10:09:20;;;;;;;23.45;12.70;;;;;;;7.17;94.34;101012.31;5045231;28;20029;-86
2020/12/13 10:11:45;;;;;;;30.08;13.98;;;;;;;6.97;93.72;100968.84;5011913;28;20097;-86
2020/12/13 10:14:12;;;;;;;29.75;16.17;;;;;;;7.23;93.75;101008.31;5029192;28;20041;-83
2020/12/13 10:16:38;;;;;;;25.27;12.07;;;;;;;7.19;93.20;101002.41;5005895;28;20525;-85
2020/12/13 10:19:04;;;;;;;25.40;12.95;;;;;;;7.17;93.67;100999.91;5023778;28;20041;-85
2020/12/13 10:21:30;;;;;;;26.98;12.80;;;;;;;7.03;93.37;100976.31;5007919;28;20061;-85
2020/12/13 10:23:56;;;;;;;21.92;12.98;;;;;;;7.14;93.23;101004.59;5020288;28;20045;-86
2020/12/13 10:26:23;;;;;;;18.42;10.82;;;;;;;7.32;92.09;101010.22;5039353;28;20073;-85
2020/12/13 10:28:49;;;;;;;27.42;11.23;;;;;;;7.38;91.64;101015.00;5033754;28;20519;-88
2020/12/13 10:31:15;;;;;;;22.27;10.88;;;;;;;7.39;92.15;101003.41;5011360;28;20037;-86
2020/12/13 10:33:40;;;;;;;22.75;10.93;;;;;;;7.17;92.16;100964.53;5019512;28;20765;-86
2020/12/13 10:36:10;;;;;;;22.40;9.70;;;;;;;7.28;90.34;100976.91;4993386;28;20040;-86
2020/12/13 10:38:35;;;;;;;17.20;9.23;;;;;;;7.55;89.55;101000.28;5016204;28;20021;-86
2020/12/13 10:41:03;;;;;;;26.95;10.73;;;;;;;7.47;90.99;100995.63;5018114;28;20538;-86
2020/12/13 10:43:29;;;;;;;23.88;10.88;;;;;;;7.41;91.60;100988.19;5019289;28;20060;-85
2020/12/13 10:45:54;;;;;;;20.70;9.63;;;;;;;7.45;90.35;100992.28;5020587;28;20120;-85
2020/12/13 10:48:20;;;;;;;20.83;11.05;;;;;;;7.43;91.22;100990.72;5038447;28;20112;-86
2020/12/13 10:50:45;;;;;;;24.30;10.45;;;;;;;6.99;89.95;100911.19;5005218;28;20561;-86
2020/12/13 10:53:11;;;;;;;20.67;10.30;;;;;;;7.43;90.38;100988.06;5016699;28;20120;-84
2020/12/13 10:55:38;;;;;;;20.13;9.88;;;;;;;7.46;89.90;101001.06;5024265;28;20644;-85
2020/12/13 10:58:03;;;;;;;25.13;11.70;;;;;;;7.40;91.11;100999.78;5022185;28;20104;-85
2020/12/13 11:00:29;;;;;;;29.38;14.10;;;;;;;7.24;91.48;100970.16;5038005;28;20159;-85
2020/12/13 11:02:54;;;;;;;28.67;14.85;;;;;;;7.42;91.91;100999.66;5023554;28;20057;-85
2020/12/13 11:05:20;;;;;;;25.88;14.65;;;;;;;7.48;91.05;100996.50;5039546;28;20551;-85
2020/12/13 11:07:45;;;;;;;22.10;12.95;;;;;;;7.50;89.67;101007.81;5024524;28;20048;-85
2020/12/13 11:10:11;;;;;;;23.23;13.18;;;;;;;7.43;90.39;101006.63;5019537;28;20112;-85
2020/12/13 11:12:37;;;;;;;24.30;13.57;;;;;;;7.32;90.44;101004.91;5035080;28;20120;-85
2020/12/13 11:15:03;;;;;;;28.33;12.73;;;;;;;7.35;90.35;101002.81;5024145;28;20136;-85
2020/12/13 11:17:29;;;;;;;26.73;13.48;;;;;;;7.26;90.46;101002.75;5012487;28;20036;-85
2020/12/13 11:19:55;;;;;;;26.88;13.15;;;;;;;7.23;90.92;101003.84;5043286;28;20116;-84
2020/12/13 11:22:20;;;;;;;30.48;13.90;;;;;;;7.15;90.86;100999.19;5010832;28;20135;-87